»·PEaware :: WAT306 KBUR-KBFI

WAT306 :: KBUR-KBFI

FLIGHT INFORMATION

Flight Status: Arrived
Operator:
Walker Air Transport
More flights by this operator :: More flights under this callsign
Pilot: Ethan S. (29221)
Aircraft: SOCATA TBM-900
(TBM9)
More flights by this aircraft type
Origin: KBUR Bob Hope-Burbank
United States
Destination: KBFI Boeing Field/King Co Intl
United States
More flights between these airports :: More routes between these airports
Route: +VNY3 AVE J189 BTG OLM2
File this flight plan on PilotEdge
Remarks:
Altitude:
(Current/Filed)
30,000ft
Speed:
(Current/Filed)
320kts
Departed: 15-Oct-20 08:12 AM
Arrived: 15-Oct-20 11:23 AM
Distance/Time
Traveled:
820nm/3:10
Distance/Time
To Go:
Arrived

Flight Plot

Page will automatically refresh every two minutes.

Flight plan parsing failed; only flown route is shown


Map Options




Map Legend


Flown Route
Filed Route
Departure Airport
Arrival Airport
Navaid (VOR, NDB)
Fix

Horizontal Profiles

Position Reports

Time Latitude Longitude Heading Altitude Ground
Speed
15-Oct-20 07:59 34.200146 -118.359459 346 721ft 0kts
15-Oct-20 08:00 34.200146 -118.359459 346 721ft 0kts
15-Oct-20 08:01 34.200146 -118.359459 346 721ft 0kts
15-Oct-20 08:02 34.200146 -118.359459 346 721ft 0kts
15-Oct-20 08:03 34.200146 -118.359459 346 721ft 0kts
15-Oct-20 08:04 34.200146 -118.359459 346 721ft 0kts
15-Oct-20 08:05 34.200146 -118.359459 346 721ft 0kts
15-Oct-20 08:06 34.200146 -118.359459 346 721ft 0kts
15-Oct-20 08:07 34.201112 -118.359471 347 725ft 14kts
15-Oct-20 08:08 34.204411 -118.359433 347 736ft 20kts
15-Oct-20 08:09 34.208048 -118.360433 347 750ft 18kts
15-Oct-20 08:10 34.211956 -118.361330 34 768ft 0kts
15-Oct-20 08:11 34.205800 -118.358674 167 739ft 101kts
15-Oct-20 08:12 34.177955 -118.379120 225 2304ft 135kts
15-Oct-20 08:13 34.165033 -118.415484 322 4147ft 131kts
15-Oct-20 08:14 34.200314 -118.431622 342 6092ft 136kts
15-Oct-20 08:15 34.232808 -118.458202 326 8122ft 142kts
15-Oct-20 08:16 34.266237 -118.487770 326 10135ft 151kts
15-Oct-20 08:17 34.301047 -118.518791 326 12201ft 158kts
15-Oct-20 08:18 34.337460 -118.551333 325 14376ft 164kts
15-Oct-20 08:19 34.375082 -118.585004 325 16668ft 170kts
15-Oct-20 08:20 34.413851 -118.619739 325 18907ft 174kts
15-Oct-20 08:21 34.454172 -118.655903 324 21200ft 182kts
15-Oct-20 08:22 34.496048 -118.693518 324 23451ft 189kts
15-Oct-20 08:23 34.540232 -118.730276 339 25513ft 193kts
15-Oct-20 08:24 34.591697 -118.755759 339 27390ft 200kts
15-Oct-20 08:25 34.645088 -118.782249 338 29526ft 208kts
15-Oct-20 08:27 34.706548 -118.812782 338 30045ft 272kts
15-Oct-20 08:28 34.782541 -118.850661 338 30019ft 307kts
15-Oct-20 08:29 34.858767 -118.906209 326 30035ft 321kts
15-Oct-20 08:30 34.934757 -118.968503 326 30062ft 326kts
15-Oct-20 08:31 35.010998 -119.031154 326 30085ft 328kts
15-Oct-20 08:32 35.087835 -119.094461 326 30092ft 329kts
15-Oct-20 08:33 35.164756 -119.157974 326 30091ft 330kts
15-Oct-20 08:34 35.242224 -119.222088 326 30091ft 330kts
15-Oct-20 08:35 35.319249 -119.285987 326 30091ft 330kts
15-Oct-20 08:36 35.395760 -119.349608 326 30089ft 323kts
15-Oct-20 08:37 35.470359 -119.411778 326 30097ft 319kts
15-Oct-20 08:38 35.542962 -119.477433 313 30104ft 318kts
15-Oct-20 08:39 35.574361 -119.578974 281 30102ft 318kts
15-Oct-20 08:40 35.593928 -119.686519 281 30100ft 318kts
15-Oct-20 08:41 35.613638 -119.794554 281 30100ft 318kts
15-Oct-20 08:41 35.629984 -119.884584 281 30100ft 318kts
15-Oct-20 08:43 35.682324 -119.991507 329 30090ft 317kts
15-Oct-20 08:43 35.752513 -120.021889 342 30101ft 316kts
15-Oct-20 08:45 35.852237 -120.062688 342 30101ft 317kts
15-Oct-20 08:45 35.923753 -120.092091 342 30101ft 317kts
15-Oct-20 08:47 36.023622 -120.133245 342 30101ft 317kts
15-Oct-20 08:47 36.094659 -120.162585 342 30101ft 317kts
15-Oct-20 08:48 36.180232 -120.198002 342 30100ft 317kts
15-Oct-20 08:49 36.265576 -120.233406 342 30100ft 317kts
15-Oct-20 08:50 36.350496 -120.268715 342 30100ft 316kts
15-Oct-20 08:51 36.436003 -120.304352 342 30101ft 316kts
15-Oct-20 08:52 36.521484 -120.340061 342 30101ft 317kts
15-Oct-20 08:53 36.606358 -120.375599 342 30101ft 317kts
15-Oct-20 08:54 36.691876 -120.411490 342 30101ft 317kts
15-Oct-20 08:55 36.776952 -120.447293 342 30110ft 316kts
15-Oct-20 08:56 36.861923 -120.483110 342 30107ft 316kts
15-Oct-20 08:57 36.946615 -120.518904 342 30103ft 316kts
15-Oct-20 08:58 37.030473 -120.554428 342 30099ft 309kts
15-Oct-20 08:59 37.112164 -120.589079 341 30100ft 301kts
15-Oct-20 09:00 37.192368 -120.623246 341 30100ft 298kts
15-Oct-20 09:01 37.271669 -120.657075 340 30101ft 296kts
15-Oct-20 09:02 37.350166 -120.690630 340 30101ft 296kts
15-Oct-20 09:03 37.428329 -120.724117 340 30101ft 296kts
15-Oct-20 09:04 37.506335 -120.757610 340 30096ft 295kts
15-Oct-20 09:05 37.585208 -120.791550 340 30092ft 295kts
15-Oct-20 09:06 37.663932 -120.825503 340 30091ft 295kts
15-Oct-20 09:07 37.743064 -120.859708 340 30090ft 295kts
15-Oct-20 09:08 37.821547 -120.893709 340 30090ft 295kts
15-Oct-20 09:09 37.900188 -120.927857 340 30090ft 295kts
15-Oct-20 09:10 37.978938 -120.962129 340 30089ft 295kts
15-Oct-20 09:11 38.057782 -120.996524 341 30089ft 295kts
15-Oct-20 09:12 38.139794 -121.014754 352 30105ft 296kts
15-Oct-20 09:13 38.222549 -121.028642 352 30124ft 296kts
15-Oct-20 09:14 38.305577 -121.042593 352 30128ft 297kts
15-Oct-20 09:15 38.388653 -121.056586 352 30125ft 298kts
15-Oct-20 09:16 38.471917 -121.070641 352 30121ft 298kts
15-Oct-20 09:17 38.555449 -121.084774 352 30118ft 298kts
15-Oct-20 09:18 38.639197 -121.098978 352 30124ft 299kts
15-Oct-20 09:19 38.722678 -121.113169 352 30130ft 299kts
15-Oct-20 09:20 38.806006 -121.127367 352 30138ft 299kts
15-Oct-20 09:21 38.889753 -121.141670 352 30153ft 299kts
15-Oct-20 09:22 38.973277 -121.155941 351 30154ft 298kts
15-Oct-20 09:23 39.055908 -121.170121 350 30154ft 296kts
15-Oct-20 09:24 39.138321 -121.184328 350 30185ft 294kts
15-Oct-20 09:25 39.221230 -121.198624 350 30211ft 295kts
15-Oct-20 09:26 39.303880 -121.212909 350 30205ft 296kts
15-Oct-20 09:27 39.386399 -121.227205 350 30198ft 296kts
15-Oct-20 09:28 39.468852 -121.241524 350 30193ft 296kts
15-Oct-20 09:29 39.551800 -121.255964 350 30180ft 296kts
15-Oct-20 09:30 39.635004 -121.270484 350 30141ft 297kts
15-Oct-20 09:31 39.718146 -121.285029 350 30117ft 296kts
15-Oct-20 09:32 39.801062 -121.299568 350 30117ft 296kts
15-Oct-20 09:33 39.883557 -121.314069 350 30117ft 296kts
15-Oct-20 09:34 39.966243 -121.328640 350 30120ft 296kts
15-Oct-20 09:35 40.048855 -121.343232 350 30154ft 295kts
15-Oct-20 09:36 40.131192 -121.357809 350 30216ft 294kts
15-Oct-20 09:37 40.213527 -121.372424 350 30227ft 295kts
15-Oct-20 09:38 40.296356 -121.387163 350 30205ft 296kts
15-Oct-20 09:39 40.379287 -121.401956 350 30184ft 297kts
15-Oct-20 09:40 40.462356 -121.416810 350 30163ft 297kts
15-Oct-20 09:41 40.545731 -121.431757 350 30162ft 296kts
15-Oct-20 09:42 40.628566 -121.446644 350 30181ft 295kts
15-Oct-20 09:43 40.711350 -121.461560 350 30190ft 296kts
15-Oct-20 09:44 40.793954 -121.476482 350 30190ft 296kts
15-Oct-20 09:45 40.876493 -121.491428 350 30189ft 296kts
15-Oct-20 09:46 40.959077 -121.506420 350 30189ft 296kts
15-Oct-20 09:47 41.040883 -121.521291 350 30276ft 292kts
15-Oct-20 09:48 41.121995 -121.536087 349 30366ft 288kts
15-Oct-20 09:49 41.202892 -121.550899 349 30420ft 286kts
15-Oct-20 09:50 41.283937 -121.565759 349 30490ft 286kts
15-Oct-20 09:51 41.364496 -121.580570 349 30500ft 287kts
15-Oct-20 09:52 41.445340 -121.595469 349 30501ft 287kts
15-Oct-20 09:53 41.526502 -121.610464 349 30501ft 287kts
15-Oct-20 09:54 41.607646 -121.625494 349 30500ft 287kts
15-Oct-20 09:55 41.688709 -121.640542 349 30508ft 287kts
15-Oct-20 09:56 41.769876 -121.655657 349 30512ft 287kts
15-Oct-20 09:57 41.850920 -121.670780 349 30511ft 287kts
15-Oct-20 09:58 41.932381 -121.686020 349 30511ft 287kts
15-Oct-20 09:59 42.013369 -121.701213 349 30510ft 287kts
15-Oct-20 10:00 42.094528 -121.716478 349 30510ft 287kts
15-Oct-20 10:01 42.175313 -121.732561 347 30515ft 288kts
15-Oct-20 10:02 42.256096 -121.750857 347 30514ft 288kts
15-Oct-20 10:03 42.336947 -121.769230 347 30514ft 288kts
15-Oct-20 10:04 42.417657 -121.787619 347 30513ft 288kts
15-Oct-20 10:05 42.498502 -121.806087 347 30513ft 288kts
15-Oct-20 10:06 42.579615 -121.824664 347 30512ft 288kts
15-Oct-20 10:07 42.660325 -121.843198 347 30512ft 288kts
15-Oct-20 10:08 42.741056 -121.861785 347 30511ft 287kts
15-Oct-20 10:09 42.822237 -121.880526 347 30511ft 287kts
15-Oct-20 10:10 42.903436 -121.899301 347 30511ft 287kts
15-Oct-20 10:11 42.984118 -121.918000 346 30509ft 283kts
15-Oct-20 10:12 43.064075 -121.936628 344 30506ft 279kts
15-Oct-20 10:13 43.142262 -121.954898 344 30512ft 277kts
15-Oct-20 10:14 43.220137 -121.973116 344 30514ft 277kts
15-Oct-20 10:15 43.297816 -121.991332 344 30539ft 277kts
15-Oct-20 10:16 43.374579 -122.009382 344 30561ft 276kts
15-Oct-20 10:17 43.451917 -122.027613 344 30566ft 276kts
15-Oct-20 10:18 43.529210 -122.045881 344 30575ft 276kts
15-Oct-20 10:19 43.606224 -122.064131 344 30575ft 276kts
15-Oct-20 10:20 43.683167 -122.082412 344 30574ft 276kts
15-Oct-20 10:22 43.759633 -122.100626 344 30573ft 276kts
15-Oct-20 10:23 43.836666 -122.119024 344 30573ft 276kts
15-Oct-20 10:24 43.913677 -122.137465 344 30572ft 276kts
15-Oct-20 10:25 43.990875 -122.155998 344 30571ft 276kts
15-Oct-20 10:26 44.067929 -122.174546 345 30571ft 276kts
15-Oct-20 10:27 44.145186 -122.193192 344 30578ft 276kts
15-Oct-20 10:28 44.223025 -122.212028 345 30577ft 277kts
15-Oct-20 10:29 44.301670 -122.231111 345 30576ft 277kts
15-Oct-20 10:30 44.380154 -122.250207 345 30576ft 277kts
15-Oct-20 10:31 44.459491 -122.269564 345 30575ft 277kts
15-Oct-20 10:32 44.538641 -122.288928 345 30578ft 276kts
15-Oct-20 10:33 44.617471 -122.308268 345 30582ft 276kts
15-Oct-20 10:34 44.696521 -122.327714 345 30586ft 276kts
15-Oct-20 10:35 44.774637 -122.346984 345 30594ft 276kts
15-Oct-20 10:36 44.852828 -122.366325 345 30599ft 276kts
15-Oct-20 10:37 44.931370 -122.385807 345 30598ft 276kts
15-Oct-20 10:37 44.996906 -122.402312 344 30598ft 275kts
15-Oct-20 10:39 45.087844 -122.425420 343 30595ft 270kts
15-Oct-20 10:39 45.151624 -122.441336 342 30604ft 267kts
15-Oct-20 10:41 45.238709 -122.463089 342 30607ft 266kts
15-Oct-20 10:41 45.301118 -122.478709 342 30608ft 265kts
15-Oct-20 10:43 45.387510 -122.500390 342 30606ft 265kts
15-Oct-20 10:43 45.449262 -122.515928 342 30604ft 265kts
15-Oct-20 10:44 45.523811 -122.534731 342 30603ft 265kts
15-Oct-20 10:45 45.598256 -122.553559 342 30601ft 265kts
15-Oct-20 10:46 45.672983 -122.572508 342 30600ft 264kts
15-Oct-20 10:47 45.747363 -122.591466 343 30099ft 280kts
15-Oct-20 10:49 45.844429 -122.615597 344 27683ft 304kts
15-Oct-20 10:49 45.913309 -122.632696 344 26653ft 285kts
15-Oct-20 10:50 45.991267 -122.652182 344 25602ft 276kts
15-Oct-20 10:51 46.068936 -122.671606 344 24623ft 269kts
15-Oct-20 10:52 46.141298 -122.689757 344 24634ft 253kts
15-Oct-20 10:53 46.211543 -122.707449 344 24635ft 250kts
15-Oct-20 10:54 46.283268 -122.725606 344 23863ft 268kts
15-Oct-20 10:55 46.360353 -122.745134 345 22565ft 278kts
15-Oct-20 10:56 46.438957 -122.765073 346 21278ft 281kts
15-Oct-20 10:57 46.514127 -122.784190 346 20075ft 258kts
15-Oct-20 10:58 46.586096 -122.802570 346 18931ft 253kts
15-Oct-20 10:59 46.656981 -122.820721 347 17792ft 251kts
15-Oct-20 11:00 46.728090 -122.838975 347 16644ft 251kts
15-Oct-20 11:01 46.798853 -122.857187 348 15500ft 251kts
15-Oct-20 11:02 46.869639 -122.875453 348 14355ft 251kts
15-Oct-20 11:03 46.939415 -122.893459 348 13231ft 243kts
15-Oct-20 11:04 47.001504 -122.864060 34 12125ft 261kts
15-Oct-20 11:05 47.058249 -122.791667 34 10573ft 267kts
15-Oct-20 11:06 47.089291 -122.697417 85 8948ft 269kts
15-Oct-20 11:07 47.089111 -122.587469 85 7383ft 258kts
15-Oct-20 11:08 47.089316 -122.485146 84 6993ft 228kts
15-Oct-20 11:09 47.089118 -122.391477 84 6997ft 220kts
15-Oct-20 11:10 47.088864 -122.299222 85 6996ft 219kts
15-Oct-20 11:11 47.117400 -122.215130 55 5700ft 239kts
15-Oct-20 11:12 47.155417 -122.136713 18 4852ft 220kts
15-Oct-20 11:13 47.219724 -122.125261 5 3454ft 234kts
15-Oct-20 11:14 47.280929 -122.115862 5 2994ft 195kts
15-Oct-20 11:15 47.331454 -122.135853 325 3002ft 191kts
15-Oct-20 11:16 47.378283 -122.174191 331 2991ft 178kts
15-Oct-20 11:17 47.415374 -122.205483 331 2424ft 125kts
15-Oct-20 11:18 47.444836 -122.230410 331 1756ft 117kts
15-Oct-20 11:19 47.472909 -122.254151 331 1149ft 103kts
15-Oct-20 11:20 47.496390 -122.274043 330 573ft 88kts
15-Oct-20 11:21 47.518218 -122.292520 330 89ft 91kts
15-Oct-20 11:22 47.527434 -122.298691 26 16ft 0kts
15-Oct-20 11:23 47.529062 -122.298655 331 17ft 8kts
15-Oct-20 11:24 47.533117 -122.302084 330 18ft 20kts
15-Oct-20 11:25 47.537328 -122.305952 331 19ft 14kts
15-Oct-20 11:26 47.540232 -122.307459 90 20ft 6kts
15-Oct-20 11:27 47.539886 -122.307108 150 19ft 0kts
15-Oct-20 11:28 47.539886 -122.307108 150 20ft 0kts

Navigation Log

Ident Type
Flight plan parsing failed, navigation log unavailable